sensor_id;sensor_type;location;lat;lon;timestamp;P1;durP1;ratioP1;P2;durP2;ratioP2
8474;SDS011;4274;52.012;8.448;2023-06-01T00:01:39;63.50;;;11.07;;
8474;SDS011;4274;52.012;8.448;2023-06-01T00:04:05;58.67;;;11.53;;
8474;SDS011;4274;52.012;8.448;2023-06-01T00:06:32;63.37;;;11.80;;
8474;SDS011;4274;52.012;8.448;2023-06-01T00:08:57;66.77;;;10.53;;
8474;SDS011;4274;52.012;8.448;2023-06-01T00:11:24;64.67;;;11.27;;
8474;SDS011;4274;52.012;8.448;2023-06-01T00:13:52;69.03;;;11.93;;
8474;SDS011;4274;52.012;8.448;2023-06-01T00:16:19;63.90;;;11.80;;
8474;SDS011;4274;52.012;8.448;2023-06-01T00:18:44;58.20;;;10.80;;
8474;SDS011;4274;52.012;8.448;2023-06-01T00:21:10;67.00;;;11.40;;
8474;SDS011;4274;52.012;8.448;2023-06-01T00:23:36;58.47;;;10.97;;
8474;SDS011;4274;52.012;8.448;2023-06-01T00:26:06;62.17;;;11.23;;
8474;SDS011;4274;52.012;8.448;2023-06-01T00:28:32;61.53;;;11.43;;
8474;SDS011;4274;52.012;8.448;2023-06-01T00:30:58;69.93;;;12.30;;
8474;SDS011;4274;52.012;8.448;2023-06-01T00:33:23;68.70;;;11.60;;
8474;SDS011;4274;52.012;8.448;2023-06-01T00:35:49;59.03;;;11.67;;
8474;SDS011;4274;52.012;8.448;2023-06-01T00:38:15;69.70;;;11.23;;
8474;SDS011;4274;52.012;8.448;2023-06-01T00:40:41;59.83;;;10.03;;
8474;SDS011;4274;52.012;8.448;2023-06-01T00:43:08;64.10;;;11.40;;
8474;SDS011;4274;52.012;8.448;2023-06-01T00:45:33;57.57;;;10.80;;
8474;SDS011;4274;52.012;8.448;2023-06-01T00:47:59;59.00;;;11.17;;
8474;SDS011;4274;52.012;8.448;2023-06-01T00:50:25;58.70;;;9.93;;
8474;SDS011;4274;52.012;8.448;2023-06-01T00:52:51;56.27;;;9.80;;
8474;SDS011;4274;52.012;8.448;2023-06-01T00:55:17;62.80;;;11.13;;
8474;SDS011;4274;52.012;8.448;2023-06-01T00:57:45;56.57;;;10.93;;
8474;SDS011;4274;52.012;8.448;2023-06-01T01:00:12;62.13;;;10.83;;
8474;SDS011;4274;52.012;8.448;2023-06-01T01:02:41;62.70;;;11.47;;
8474;SDS011;4274;52.012;8.448;2023-06-01T01:05:09;58.60;;;11.70;;
8474;SDS011;4274;52.012;8.448;2023-06-01T01:07:42;61.20;;;11.33;;
8474;SDS011;4274;52.012;8.448;2023-06-01T01:10:26;60.33;;;9.70;;
8474;SDS011;4274;52.012;8.448;2023-06-01T01:13:01;54.57;;;9.37;;
8474;SDS011;4274;52.012;8.448;2023-06-01T01:15:38;56.77;;;10.30;;
8474;SDS011;4274;52.012;8.448;2023-06-01T01:18:16;56.40;;;10.20;;
8474;SDS011;4274;52.012;8.448;2023-06-01T01:20:48;62.03;;;12.47;;
8474;SDS011;4274;52.012;8.448;2023-06-01T01:29:10;60.67;;;10.33;;
8474;SDS011;4274;52.012;8.448;2023-06-01T01:31:39;60.13;;;10.03;;
8474;SDS011;4274;52.012;8.448;2023-06-01T01:34:06;56.60;;;10.53;;
8474;SDS011;4274;52.012;8.448;2023-06-01T01:36:33;62.10;;;10.60;;
8474;SDS011;4274;52.012;8.448;2023-06-01T01:39:00;57.03;;;9.60;;
8474;SDS011;4274;52.012;8.448;2023-06-01T01:41:26;57.17;;;10.43;;
8474;SDS011;4274;52.012;8.448;2023-06-01T01:43:51;57.67;;;11.13;;
8474;SDS011;4274;52.012;8.448;2023-06-01T01:46:22;54.10;;;9.60;;
8474;SDS011;4274;52.012;8.448;2023-06-01T01:48:54;59.97;;;10.23;;
8474;SDS011;4274;52.012;8.448;2023-06-01T01:52:12;58.53;;;10.20;;
8474;SDS011;4274;52.012;8.448;2023-06-01T01:54:40;56.70;;;10.00;;
8474;SDS011;4274;52.012;8.448;2023-06-01T01:57:08;64.53;;;10.47;;
8474;SDS011;4274;52.012;8.448;2023-06-01T01:59:34;60.53;;;9.63;;
8474;SDS011;4274;52.012;8.448;2023-06-01T02:02:01;55.73;;;9.30;;
8474;SDS011;4274;52.012;8.448;2023-06-01T02:04:27;59.00;;;9.03;;
8474;SDS011;4274;52.012;8.448;2023-06-01T02:06:53;59.03;;;9.57;;
8474;SDS011;4274;52.012;8.448;2023-06-01T02:09:19;55.40;;;9.13;;
8474;SDS011;4274;52.012;8.448;2023-06-01T02:11:44;58.03;;;9.73;;
8474;SDS011;4274;52.012;8.448;2023-06-01T02:14:10;58.83;;;9.30;;
8474;SDS011;4274;52.012;8.448;2023-06-01T02:16:36;53.93;;;8.73;;
8474;SDS011;4274;52.012;8.448;2023-06-01T02:19:01;56.80;;;11.63;;
8474;SDS011;4274;52.012;8.448;2023-06-01T02:21:27;53.90;;;8.63;;
8474;SDS011;4274;52.012;8.448;2023-06-01T02:23:53;62.83;;;8.37;;
8474;SDS011;4274;52.012;8.448;2023-06-01T02:26:19;53.07;;;8.17;;
8474;SDS011;4274;52.012;8.448;2023-06-01T02:28:46;51.73;;;7.90;;
8474;SDS011;4274;52.012;8.448;2023-06-01T02:31:12;53.37;;;8.37;;
8474;SDS011;4274;52.012;8.448;2023-06-01T02:33:39;56.67;;;8.73;;
8474;SDS011;4274;52.012;8.448;2023-06-01T02:36:05;58.67;;;9.27;;
8474;SDS011;4274;52.012;8.448;2023-06-01T02:38:31;60.43;;;8.63;;
8474;SDS011;4274;52.012;8.448;2023-06-01T02:40:56;52.73;;;7.70;;
8474;SDS011;4274;52.012;8.448;2023-06-01T02:43:22;51.37;;;8.20;;
8474;SDS011;4274;52.012;8.448;2023-06-01T02:45:47;57.63;;;9.10;;
8474;SDS011;4274;52.012;8.448;2023-06-01T02:48:13;55.87;;;8.80;;
8474;SDS011;4274;52.012;8.448;2023-06-01T02:50:39;54.13;;;8.10;;
8474;SDS011;4274;52.012;8.448;2023-06-01T02:53:05;56.03;;;8.20;;
8474;SDS011;4274;52.012;8.448;2023-06-01T02:55:31;51.10;;;8.77;;
8474;SDS011;4274;52.012;8.448;2023-06-01T02:57:56;58.00;;;7.83;;
8474;SDS011;4274;52.012;8.448;2023-06-01T03:00:22;57.40;;;7.97;;
8474;SDS011;4274;52.012;8.448;2023-06-01T03:02:47;55.50;;;8.20;;
8474;SDS011;4274;52.012;8.448;2023-06-01T03:05:13;52.67;;;8.03;;
8474;SDS011;4274;52.012;8.448;2023-06-01T03:07:40;54.90;;;7.87;;
8474;SDS011;4274;52.012;8.448;2023-06-01T03:10:06;58.23;;;8.33;;
8474;SDS011;4274;52.012;8.448;2023-06-01T03:12:33;57.77;;;10.13;;
8474;SDS011;4274;52.012;8.448;2023-06-01T03:14:58;53.53;;;9.30;;
8474;SDS011;4274;52.012;8.448;2023-06-01T03:17:24;65.70;;;9.70;;
8474;SDS011;4274;52.012;8.448;2023-06-01T03:19:49;62.27;;;9.47;;
8474;SDS011;4274;52.012;8.448;2023-06-01T03:22:15;58.30;;;10.67;;
8474;SDS011;4274;52.012;8.448;2023-06-01T03:24:40;54.13;;;9.83;;
8474;SDS011;4274;52.012;8.448;2023-06-01T03:27:06;56.67;;;8.80;;
8474;SDS011;4274;52.012;8.448;2023-06-01T03:29:32;56.30;;;10.13;;
8474;SDS011;4274;52.012;8.448;2023-06-01T03:31:58;55.70;;;10.53;;
8474;SDS011;4274;52.012;8.448;2023-06-01T03:34:24;58.33;;;9.40;;
8474;SDS011;4274;52.012;8.448;2023-06-01T03:36:52;58.43;;;11.03;;
8474;SDS011;4274;52.012;8.448;2023-06-01T03:39:18;55.83;;;10.60;;
8474;SDS011;4274;52.012;8.448;2023-06-01T03:41:43;55.60;;;11.97;;
8474;SDS011;4274;52.012;8.448;2023-06-01T03:44:10;61.13;;;10.67;;
8474;SDS011;4274;52.012;8.448;2023-06-01T03:46:36;66.40;;;12.50;;
8474;SDS011;4274;52.012;8.448;2023-06-01T03:49:02;56.10;;;10.70;;
8474;SDS011;4274;52.012;8.448;2023-06-01T03:51:29;59.87;;;10.57;;
8474;SDS011;4274;52.012;8.448;2023-06-01T03:53:55;59.23;;;11.20;;
8474;SDS011;4274;52.012;8.448;2023-06-01T03:56:21;57.07;;;10.70;;
8474;SDS011;4274;52.012;8.448;2023-06-01T03:58:47;61.13;;;11.73;;
8474;SDS011;4274;52.012;8.448;2023-06-01T04:01:13;62.67;;;11.57;;
8474;SDS011;4274;52.012;8.448;2023-06-01T04:03:41;65.33;;;11.60;;
8474;SDS011;4274;52.012;8.448;2023-06-01T04:06:10;59.00;;;11.67;;
8474;SDS011;4274;52.012;8.448;2023-06-01T04:08:42;65.07;;;10.70;;
8474;SDS011;4274;52.012;8.448;2023-06-01T04:11:15;63.67;;;11.80;;
8474;SDS011;4274;52.012;8.448;2023-06-01T04:13:42;58.67;;;11.80;;
8474;SDS011;4274;52.012;8.448;2023-06-01T04:16:08;55.30;;;10.20;;
8474;SDS011;4274;52.012;8.448;2023-06-01T04:18:37;61.53;;;10.97;;
8474;SDS011;4274;52.012;8.448;2023-06-01T04:21:03;63.57;;;12.10;;
8474;SDS011;4274;52.012;8.448;2023-06-01T04:23:29;63.47;;;11.70;;
8474;SDS011;4274;52.012;8.448;2023-06-01T04:25:55;61.03;;;12.73;;
8474;SDS011;4274;52.012;8.448;2023-06-01T04:28:24;63.20;;;13.33;;
8474;SDS011;4274;52.012;8.448;2023-06-01T04:30:51;65.17;;;12.50;;
8474;SDS011;4274;52.012;8.448;2023-06-01T04:33:19;58.40;;;13.40;;
8474;SDS011;4274;52.012;8.448;2023-06-01T04:35:45;65.30;;;13.32;;
8474;SDS011;4274;52.012;8.448;2023-06-01T04:38:10;62.13;;;13.67;;
8474;SDS011;4274;52.012;8.448;2023-06-01T04:40:36;59.93;;;13.30;;
8474;SDS011;4274;52.012;8.448;2023-06-01T04:43:02;56.73;;;11.17;;
8474;SDS011;4274;52.012;8.448;2023-06-01T04:45:28;63.73;;;12.63;;
8474;SDS011;4274;52.012;8.448;2023-06-01T04:47:58;61.50;;;12.30;;
8474;SDS011;4274;52.012;8.448;2023-06-01T04:50:24;60.80;;;11.63;;
8474;SDS011;4274;52.012;8.448;2023-06-01T04:52:54;64.07;;;13.10;;
8474;SDS011;4274;52.012;8.448;2023-06-01T04:55:20;61.10;;;12.80;;
8474;SDS011;4274;52.012;8.448;2023-06-01T04:57:45;63.00;;;13.17;;
8474;SDS011;4274;52.012;8.448;2023-06-01T05:00:12;71.43;;;13.07;;
8474;SDS011;4274;52.012;8.448;2023-06-01T05:02:42;62.70;;;11.97;;
8474;SDS011;4274;52.012;8.448;2023-06-01T05:05:09;61.40;;;12.63;;
8474;SDS011;4274;52.012;8.448;2023-06-01T05:07:36;63.40;;;12.40;;
8474;SDS011;4274;52.012;8.448;2023-06-01T05:10:04;65.30;;;11.40;;
8474;SDS011;4274;52.012;8.448;2023-06-01T05:12:31;73.47;;;13.73;;
8474;SDS011;4274;52.012;8.448;2023-06-01T05:14:57;61.90;;;12.60;;
8474;SDS011;4274;52.012;8.448;2023-06-01T05:17:23;66.37;;;12.40;;
8474;SDS011;4274;52.012;8.448;2023-06-01T05:19:49;56.10;;;11.10;;
8474;SDS011;4274;52.012;8.448;2023-06-01T05:22:14;67.30;;;14.00;;
8474;SDS011;4274;52.012;8.448;2023-06-01T05:24:40;82.40;;;13.27;;
8474;SDS011;4274;52.012;8.448;2023-06-01T05:27:05;60.70;;;12.27;;
8474;SDS011;4274;52.012;8.448;2023-06-01T05:29:31;65.47;;;12.40;;
8474;SDS011;4274;52.012;8.448;2023-06-01T05:31:57;65.60;;;14.00;;
8474;SDS011;4274;52.012;8.448;2023-06-01T05:34:22;67.20;;;12.20;;
8474;SDS011;4274;52.012;8.448;2023-06-01T05:36:48;62.70;;;13.70;;
8474;SDS011;4274;52.012;8.448;2023-06-01T05:39:14;60.57;;;12.60;;
8474;SDS011;4274;52.012;8.448;2023-06-01T05:41:40;73.30;;;13.20;;
8474;SDS011;4274;52.012;8.448;2023-06-01T05:44:06;62.27;;;12.33;;
8474;SDS011;4274;52.012;8.448;2023-06-01T05:46:32;60.53;;;11.67;;
8474;SDS011;4274;52.012;8.448;2023-06-01T05:48:57;62.10;;;11.23;;
8474;SDS011;4274;52.012;8.448;2023-06-01T05:51:23;61.80;;;12.50;;
8474;SDS011;4274;52.012;8.448;2023-06-01T05:53:48;66.00;;;12.37;;
8474;SDS011;4274;52.012;8.448;2023-06-01T05:56:14;66.33;;;11.23;;
8474;SDS011;4274;52.012;8.448;2023-06-01T05:58:41;69.57;;;11.73;;
8474;SDS011;4274;52.012;8.448;2023-06-01T06:01:07;64.83;;;11.97;;
8474;SDS011;4274;52.012;8.448;2023-06-01T06:03:32;59.47;;;10.67;;
8474;SDS011;4274;52.012;8.448;2023-06-01T06:05:58;56.53;;;10.10;;
8474;SDS011;4274;52.012;8.448;2023-06-01T06:08:25;64.10;;;11.97;;
8474;SDS011;4274;52.012;8.448;2023-06-01T06:10:50;60.97;;;11.27;;
8474;SDS011;4274;52.012;8.448;2023-06-01T06:13:16;54.37;;;10.10;;
8474;SDS011;4274;52.012;8.448;2023-06-01T06:15:42;59.20;;;11.10;;
8474;SDS011;4274;52.012;8.448;2023-06-01T06:18:07;64.10;;;11.07;;
8474;SDS011;4274;52.012;8.448;2023-06-01T06:20:33;72.53;;;11.70;;
8474;SDS011;4274;52.012;8.448;2023-06-01T06:22:58;59.40;;;12.30;;
8474;SDS011;4274;52.012;8.448;2023-06-01T06:25:24;67.67;;;10.10;;
8474;SDS011;4274;52.012;8.448;2023-06-01T06:27:49;64.50;;;9.90;;
8474;SDS011;4274;52.012;8.448;2023-06-01T06:30:15;63.57;;;10.93;;
8474;SDS011;4274;52.012;8.448;2023-06-01T06:32:41;59.33;;;10.70;;
8474;SDS011;4274;52.012;8.448;2023-06-01T06:35:06;59.73;;;9.50;;
8474;SDS011;4274;52.012;8.448;2023-06-01T06:37:37;55.30;;;9.60;;
8474;SDS011;4274;52.012;8.448;2023-06-01T06:40:04;75.13;;;10.90;;
8474;SDS011;4274;52.012;8.448;2023-06-01T06:42:31;57.40;;;9.60;;
8474;SDS011;4274;52.012;8.448;2023-06-01T06:44:57;62.60;;;10.47;;
8474;SDS011;4274;52.012;8.448;2023-06-01T06:47:22;58.73;;;9.20;;
8474;SDS011;4274;52.012;8.448;2023-06-01T06:49:49;56.87;;;10.10;;
8474;SDS011;4274;52.012;8.448;2023-06-01T06:52:16;59.37;;;11.30;;
8474;SDS011;4274;52.012;8.448;2023-06-01T06:54:41;64.33;;;10.70;;
8474;SDS011;4274;52.012;8.448;2023-06-01T06:57:07;55.37;;;9.30;;
8474;SDS011;4274;52.012;8.448;2023-06-01T06:59:33;53.70;;;9.20;;
8474;SDS011;4274;52.012;8.448;2023-06-01T07:01:59;57.83;;;9.70;;
8474;SDS011;4274;52.012;8.448;2023-06-01T07:04:25;70.57;;;10.50;;
8474;SDS011;4274;52.012;8.448;2023-06-01T07:06:52;54.87;;;10.03;;
8474;SDS011;4274;52.012;8.448;2023-06-01T07:09:18;62.37;;;9.90;;
8474;SDS011;4274;52.012;8.448;2023-06-01T07:11:43;65.20;;;10.37;;
8474;SDS011;4274;52.012;8.448;2023-06-01T07:14:10;59.93;;;9.10;;
8474;SDS011;4274;52.012;8.448;2023-06-01T07:16:35;60.93;;;10.80;;
8474;SDS011;4274;52.012;8.448;2023-06-01T07:19:01;61.40;;;10.13;;
8474;SDS011;4274;52.012;8.448;2023-06-01T07:21:27;57.90;;;10.60;;
8474;SDS011;4274;52.012;8.448;2023-06-01T07:23:53;55.73;;;10.27;;
8474;SDS011;4274;52.012;8.448;2023-06-01T07:26:19;60.10;;;9.83;;
8474;SDS011;4274;52.012;8.448;2023-06-01T07:28:45;54.53;;;9.40;;
8474;SDS011;4274;52.012;8.448;2023-06-01T07:31:11;59.50;;;9.80;;
8474;SDS011;4274;52.012;8.448;2023-06-01T07:33:36;61.57;;;12.10;;
8474;SDS011;4274;52.012;8.448;2023-06-01T07:36:02;61.33;;;10.83;;
8474;SDS011;4274;52.012;8.448;2023-06-01T07:38:29;57.13;;;9.67;;
8474;SDS011;4274;52.012;8.448;2023-06-01T07:40:55;54.43;;;9.57;;
8474;SDS011;4274;52.012;8.448;2023-06-01T07:43:20;59.47;;;10.47;;
8474;SDS011;4274;52.012;8.448;2023-06-01T07:45:46;57.10;;;10.70;;
8474;SDS011;4274;52.012;8.448;2023-06-01T07:48:11;60.40;;;10.70;;
8474;SDS011;4274;52.012;8.448;2023-06-01T07:50:37;63.37;;;9.83;;
8474;SDS011;4274;52.012;8.448;2023-06-01T07:53:03;57.47;;;9.80;;
8474;SDS011;4274;52.012;8.448;2023-06-01T07:55:28;63.13;;;10.20;;
8474;SDS011;4274;52.012;8.448;2023-06-01T07:57:54;59.70;;;10.40;;
8474;SDS011;4274;52.012;8.448;2023-06-01T08:00:20;57.27;;;10.80;;
8474;SDS011;4274;52.012;8.448;2023-06-01T08:02:47;55.90;;;10.00;;
8474;SDS011;4274;52.012;8.448;2023-06-01T08:05:12;61.40;;;10.37;;
8474;SDS011;4274;52.012;8.448;2023-06-01T08:07:42;57.67;;;10.00;;
8474;SDS011;4274;52.012;8.448;2023-06-01T08:10:09;58.73;;;8.80;;
8474;SDS011;4274;52.012;8.448;2023-06-01T08:12:35;62.57;;;10.43;;
8474;SDS011;4274;52.012;8.448;2023-06-01T08:15:01;57.50;;;9.73;;
8474;SDS011;4274;52.012;8.448;2023-06-01T08:17:28;56.30;;;9.37;;
8474;SDS011;4274;52.012;8.448;2023-06-01T08:19:54;57.70;;;9.20;;
8474;SDS011;4274;52.012;8.448;2023-06-01T08:22:21;58.40;;;9.23;;
8474;SDS011;4274;52.012;8.448;2023-06-01T08:24:48;65.50;;;8.80;;
8474;SDS011;4274;52.012;8.448;2023-06-01T08:27:22;53.50;;;8.33;;
8474;SDS011;4274;52.012;8.448;2023-06-01T08:29:49;62.43;;;9.00;;
8474;SDS011;4274;52.012;8.448;2023-06-01T08:32:15;53.93;;;8.50;;
8474;SDS011;4274;52.012;8.448;2023-06-01T08:34:44;52.87;;;9.10;;
8474;SDS011;4274;52.012;8.448;2023-06-01T08:37:11;59.20;;;8.93;;
8474;SDS011;4274;52.012;8.448;2023-06-01T08:39:38;59.63;;;10.53;;
8474;SDS011;4274;52.012;8.448;2023-06-01T08:42:15;59.90;;;8.33;;
8474;SDS011;4274;52.012;8.448;2023-06-01T08:44:48;62.40;;;9.37;;
8474;SDS011;4274;52.012;8.448;2023-06-01T08:47:18;66.53;;;9.30;;
8474;SDS011;4274;52.012;8.448;2023-06-01T08:49:44;56.57;;;8.03;;
8474;SDS011;4274;52.012;8.448;2023-06-01T08:52:13;58.53;;;8.80;;
8474;SDS011;4274;52.012;8.448;2023-06-01T08:54:42;64.37;;;9.17;;
8474;SDS011;4274;52.012;8.448;2023-06-01T08:57:08;56.03;;;8.17;;
8474;SDS011;4274;52.012;8.448;2023-06-01T08:59:34;58.93;;;7.40;;
8474;SDS011;4274;52.012;8.448;2023-06-01T09:02:00;55.63;;;8.17;;
8474;SDS011;4274;52.012;8.448;2023-06-01T09:04:29;57.03;;;8.80;;
8474;SDS011;4274;52.012;8.448;2023-06-01T09:06:56;58.30;;;7.20;;
8474;SDS011;4274;52.012;8.448;2023-06-01T09:09:22;54.50;;;8.27;;
8474;SDS011;4274;52.012;8.448;2023-06-01T09:11:47;55.97;;;7.50;;
8474;SDS011;4274;52.012;8.448;2023-06-01T09:14:31;54.20;;;7.93;;
8474;SDS011;4274;52.012;8.448;2023-06-01T09:16:56;54.17;;;7.07;;
8474;SDS011;4274;52.012;8.448;2023-06-01T09:19:22;55.90;;;8.37;;
8474;SDS011;4274;52.012;8.448;2023-06-01T09:21:57;55.80;;;7.90;;
8474;SDS011;4274;52.012;8.448;2023-06-01T09:24:24;55.50;;;7.13;;
8474;SDS011;4274;52.012;8.448;2023-06-01T09:26:50;60.47;;;8.40;;
8474;SDS011;4274;52.012;8.448;2023-06-01T09:29:16;60.37;;;8.43;;
8474;SDS011;4274;52.012;8.448;2023-06-01T09:31:43;57.77;;;8.90;;
8474;SDS011;4274;52.012;8.448;2023-06-01T09:34:10;56.00;;;8.70;;
8474;SDS011;4274;52.012;8.448;2023-06-01T09:36:37;61.83;;;9.17;;
8474;SDS011;4274;52.012;8.448;2023-06-01T09:39:03;60.13;;;7.57;;
8474;SDS011;4274;52.012;8.448;2023-06-01T09:46:58;59.07;;;7.67;;
8474;SDS011;4274;52.012;8.448;2023-06-01T09:49:29;62.33;;;8.07;;
8474;SDS011;4274;52.012;8.448;2023-06-01T09:52:15;56.50;;;7.40;;
8474;SDS011;4274;52.012;8.448;2023-06-01T09:54:48;50.10;;;6.80;;
8474;SDS011;4274;52.012;8.448;2023-06-01T09:57:22;52.17;;;6.77;;
8474;SDS011;4274;52.012;8.448;2023-06-01T09:59:49;50.00;;;6.70;;
8474;SDS011;4274;52.012;8.448;2023-06-01T10:04:43;53.00;;;7.30;;
8474;SDS011;4274;52.012;8.448;2023-06-01T10:07:12;52.00;;;6.23;;
8474;SDS011;4274;52.012;8.448;2023-06-01T10:09:38;49.10;;;6.30;;
8474;SDS011;4274;52.012;8.448;2023-06-01T10:12:07;50.00;;;5.70;;
8474;SDS011;4274;52.012;8.448;2023-06-01T10:14:35;48.70;;;6.20;;
8474;SDS011;4274;52.012;8.448;2023-06-01T10:17:04;52.13;;;5.90;;
8474;SDS011;4274;52.012;8.448;2023-06-01T10:19:31;47.53;;;5.53;;
8474;SDS011;4274;52.012;8.448;2023-06-01T10:21:57;51.60;;;6.50;;
8474;SDS011;4274;52.012;8.448;2023-06-01T10:24:23;51.90;;;5.97;;
8474;SDS011;4274;52.012;8.448;2023-06-01T10:29:26;54.60;;;7.33;;
8474;SDS011;4274;52.012;8.448;2023-06-01T10:31:54;53.23;;;6.00;;
8474;SDS011;4274;52.012;8.448;2023-06-01T10:34:36;55.50;;;6.60;;
8474;SDS011;4274;52.012;8.448;2023-06-01T10:37:09;52.23;;;7.00;;
8474;SDS011;4274;52.012;8.448;2023-06-01T10:39:36;49.13;;;6.67;;
8474;SDS011;4274;52.012;8.448;2023-06-01T10:52:37;56.97;;;6.90;;
8474;SDS011;4274;52.012;8.448;2023-06-01T10:57:31;49.20;;;6.53;;
8474;SDS011;4274;52.012;8.448;2023-06-01T11:03:01;57.73;;;6.33;;
8474;SDS011;4274;52.012;8.448;2023-06-01T11:21:21;49.30;;;5.93;;
8474;SDS011;4274;52.012;8.448;2023-06-01T11:23:48;48.47;;;5.53;;
8474;SDS011;4274;52.012;8.448;2023-06-01T11:26:16;49.40;;;5.27;;
8474;SDS011;4274;52.012;8.448;2023-06-01T11:28:43;49.27;;;5.90;;
8474;SDS011;4274;52.012;8.448;2023-06-01T11:31:11;50.30;;;5.87;;
8474;SDS011;4274;52.012;8.448;2023-06-01T11:33:39;48.77;;;5.67;;
8474;SDS011;4274;52.012;8.448;2023-06-01T11:36:06;49.50;;;5.77;;
8474;SDS011;4274;52.012;8.448;2023-06-01T11:38:35;51.83;;;6.10;;
8474;SDS011;4274;52.012;8.448;2023-06-01T11:41:06;51.60;;;7.43;;
8474;SDS011;4274;52.012;8.448;2023-06-01T11:43:33;50.20;;;5.80;;
8474;SDS011;4274;52.012;8.448;2023-06-01T11:46:03;48.57;;;6.10;;
8474;SDS011;4274;52.012;8.448;2023-06-01T11:48:33;54.03;;;7.20;;
8474;SDS011;4274;52.012;8.448;2023-06-01T11:50:59;47.03;;;5.23;;
8474;SDS011;4274;52.012;8.448;2023-06-01T11:53:29;52.37;;;6.30;;
8474;SDS011;4274;52.012;8.448;2023-06-01T11:55:58;48.47;;;5.70;;
8474;SDS011;4274;52.012;8.448;2023-06-01T11:58:28;47.80;;;5.60;;
8474;SDS011;4274;52.012;8.448;2023-06-01T12:00:55;50.20;;;5.70;;
8474;SDS011;4274;52.012;8.448;2023-06-01T12:03:22;48.00;;;5.73;;
8474;SDS011;4274;52.012;8.448;2023-06-01T12:05:51;49.20;;;6.23;;
8474;SDS011;4274;52.012;8.448;2023-06-01T12:08:21;53.80;;;5.57;;
8474;SDS011;4274;52.012;8.448;2023-06-01T12:10:49;48.30;;;5.93;;
8474;SDS011;4274;52.012;8.448;2023-06-01T12:13:19;49.27;;;5.87;;
8474;SDS011;4274;52.012;8.448;2023-06-01T12:15:45;48.23;;;5.60;;
8474;SDS011;4274;52.012;8.448;2023-06-01T12:18:11;47.57;;;5.67;;
8474;SDS011;4274;52.012;8.448;2023-06-01T12:20:46;55.93;;;6.63;;
8474;SDS011;4274;52.012;8.448;2023-06-01T12:28:24;56.90;;;6.97;;
8474;SDS011;4274;52.012;8.448;2023-06-01T12:31:09;48.77;;;6.60;;
8474;SDS011;4274;52.012;8.448;2023-06-01T12:33:37;55.43;;;6.47;;
8474;SDS011;4274;52.012;8.448;2023-06-01T12:36:04;51.47;;;6.90;;
8474;SDS011;4274;52.012;8.448;2023-06-01T12:38:35;52.67;;;8.07;;
8474;SDS011;4274;52.012;8.448;2023-06-01T12:41:09;52.33;;;7.27;;
8474;SDS011;4274;52.012;8.448;2023-06-01T12:43:36;48.70;;;6.67;;
8474;SDS011;4274;52.012;8.448;2023-06-01T12:46:03;49.97;;;6.50;;
8474;SDS011;4274;52.012;8.448;2023-06-01T12:48:33;48.13;;;5.73;;
8474;SDS011;4274;52.012;8.448;2023-06-01T12:51:00;50.27;;;6.23;;
8474;SDS011;4274;52.012;8.448;2023-06-01T12:53:27;47.30;;;5.70;;
8474;SDS011;4274;52.012;8.448;2023-06-01T12:55:53;47.67;;;5.73;;
8474;SDS011;4274;52.012;8.448;2023-06-01T12:58:19;47.17;;;5.50;;
8474;SDS011;4274;52.012;8.448;2023-06-01T13:00:44;51.20;;;5.53;;
8474;SDS011;4274;52.012;8.448;2023-06-01T13:03:10;48.27;;;6.20;;
8474;SDS011;4274;52.012;8.448;2023-06-01T13:05:36;47.50;;;5.43;;
8474;SDS011;4274;52.012;8.448;2023-06-01T13:08:02;49.97;;;5.90;;
8474;SDS011;4274;52.012;8.448;2023-06-01T13:10:27;47.50;;;5.47;;
8474;SDS011;4274;52.012;8.448;2023-06-01T13:12:54;48.90;;;5.57;;
8474;SDS011;4274;52.012;8.448;2023-06-01T13:15:20;47.10;;;4.83;;
8474;SDS011;4274;52.012;8.448;2023-06-01T13:17:46;47.50;;;5.40;;
8474;SDS011;4274;52.012;8.448;2023-06-01T13:20:12;46.97;;;4.60;;
8474;SDS011;4274;52.012;8.448;2023-06-01T13:22:41;46.57;;;4.30;;
8474;SDS011;4274;52.012;8.448;2023-06-01T13:25:07;47.83;;;5.40;;
8474;SDS011;4274;52.012;8.448;2023-06-01T13:27:33;52.20;;;5.10;;
8474;SDS011;4274;52.012;8.448;2023-06-01T13:29:59;48.17;;;5.57;;
8474;SDS011;4274;52.012;8.448;2023-06-01T13:32:26;47.23;;;4.40;;
8474;SDS011;4274;52.012;8.448;2023-06-01T13:34:52;47.13;;;5.27;;
8474;SDS011;4274;52.012;8.448;2023-06-01T13:37:18;47.27;;;4.27;;
8474;SDS011;4274;52.012;8.448;2023-06-01T13:39:44;50.30;;;5.37;;
8474;SDS011;4274;52.012;8.448;2023-06-01T13:42:09;55.43;;;6.10;;
8474;SDS011;4274;52.012;8.448;2023-06-01T13:44:35;50.80;;;6.17;;
8474;SDS011;4274;52.012;8.448;2023-06-01T13:47:00;46.90;;;5.47;;
8474;SDS011;4274;52.012;8.448;2023-06-01T13:49:26;49.10;;;5.97;;
8474;SDS011;4274;52.012;8.448;2023-06-01T13:51:52;48.70;;;5.10;;
8474;SDS011;4274;52.012;8.448;2023-06-01T13:54:17;48.07;;;4.80;;
8474;SDS011;4274;52.012;8.448;2023-06-01T13:56:43;47.17;;;4.47;;
8474;SDS011;4274;52.012;8.448;2023-06-01T13:59:09;46.27;;;4.30;;
8474;SDS011;4274;52.012;8.448;2023-06-01T14:01:35;46.30;;;4.70;;
8474;SDS011;4274;52.012;8.448;2023-06-01T14:04:00;47.80;;;4.73;;
8474;SDS011;4274;52.012;8.448;2023-06-01T14:06:26;48.90;;;5.20;;
8474;SDS011;4274;52.012;8.448;2023-06-01T14:08:52;46.70;;;4.77;;
8474;SDS011;4274;52.012;8.448;2023-06-01T14:11:17;46.17;;;4.50;;
8474;SDS011;4274;52.012;8.448;2023-06-01T14:13:43;45.67;;;4.40;;
8474;SDS011;4274;52.012;8.448;2023-06-01T14:16:08;46.97;;;5.00;;
8474;SDS011;4274;52.012;8.448;2023-06-01T14:18:34;47.30;;;5.03;;
8474;SDS011;4274;52.012;8.448;2023-06-01T14:21:00;47.47;;;5.07;;
8474;SDS011;4274;52.012;8.448;2023-06-01T14:23:25;46.47;;;4.37;;
8474;SDS011;4274;52.012;8.448;2023-06-01T14:25:51;46.83;;;5.17;;
8474;SDS011;4274;52.012;8.448;2023-06-01T14:28:17;46.20;;;4.30;;
8474;SDS011;4274;52.012;8.448;2023-06-01T14:30:42;46.50;;;5.10;;
8474;SDS011;4274;52.012;8.448;2023-06-01T14:33:08;51.73;;;5.10;;
8474;SDS011;4274;52.012;8.448;2023-06-01T14:35:34;47.87;;;4.73;;
8474;SDS011;4274;52.012;8.448;2023-06-01T14:37:59;46.07;;;4.97;;
8474;SDS011;4274;52.012;8.448;2023-06-01T14:40:25;46.33;;;4.90;;
8474;SDS011;4274;52.012;8.448;2023-06-01T14:42:51;48.03;;;5.17;;
8474;SDS011;4274;52.012;8.448;2023-06-01T14:45:16;47.93;;;5.03;;
8474;SDS011;4274;52.012;8.448;2023-06-01T14:47:44;47.53;;;4.93;;
8474;SDS011;4274;52.012;8.448;2023-06-01T14:50:11;46.13;;;4.30;;
8474;SDS011;4274;52.012;8.448;2023-06-01T14:52:36;47.10;;;4.27;;
8474;SDS011;4274;52.012;8.448;2023-06-01T14:55:02;48.10;;;4.93;;
8474;SDS011;4274;52.012;8.448;2023-06-01T14:57:28;48.60;;;5.17;;
8474;SDS011;4274;52.012;8.448;2023-06-01T14:59:53;46.80;;;4.70;;
8474;SDS011;4274;52.012;8.448;2023-06-01T15:02:19;45.50;;;4.10;;
8474;SDS011;4274;52.012;8.448;2023-06-01T15:04:44;46.70;;;4.30;;
8474;SDS011;4274;52.012;8.448;2023-06-01T15:07:10;45.87;;;4.53;;
8474;SDS011;4274;52.012;8.448;2023-06-01T15:09:36;48.43;;;4.83;;
8474;SDS011;4274;52.012;8.448;2023-06-01T15:12:01;45.20;;;4.10;;
8474;SDS011;4274;52.012;8.448;2023-06-01T15:14:28;46.40;;;4.70;;
8474;SDS011;4274;52.012;8.448;2023-06-01T15:16:53;44.97;;;3.90;;
8474;SDS011;4274;52.012;8.448;2023-06-01T15:19:19;46.17;;;4.60;;
8474;SDS011;4274;52.012;8.448;2023-06-01T15:21:44;46.50;;;3.90;;
8474;SDS011;4274;52.012;8.448;2023-06-01T15:24:10;47.00;;;4.53;;
8474;SDS011;4274;52.012;8.448;2023-06-01T15:26:36;45.97;;;4.00;;
8474;SDS011;4274;52.012;8.448;2023-06-01T15:29:02;45.60;;;4.30;;
8474;SDS011;4274;52.012;8.448;2023-06-01T15:31:27;48.63;;;4.13;;
8474;SDS011;4274;52.012;8.448;2023-06-01T15:33:53;47.80;;;5.10;;
8474;SDS011;4274;52.012;8.448;2023-06-01T15:36:19;46.63;;;4.60;;
8474;SDS011;4274;52.012;8.448;2023-06-01T15:38:44;49.70;;;5.37;;
8474;SDS011;4274;52.012;8.448;2023-06-01T15:41:10;48.00;;;5.37;;
8474;SDS011;4274;52.012;8.448;2023-06-01T15:43:36;48.13;;;5.40;;
8474;SDS011;4274;52.012;8.448;2023-06-01T15:46:04;49.03;;;5.80;;
8474;SDS011;4274;52.012;8.448;2023-06-01T15:48:30;46.77;;;4.93;;